BOS weather

Public forecast

Using degrees Fahrenheit for public forecast. Weather courtesy of forecast.io.

Current aviation weather report (METAR) for General Edward Lawrence Logan International Airport

Retrieved 2020/08/12 22:54 UTC (21 minutes ago):

KBOS 122254Z 08004KT 10SM SCT070 BKN250 29/21 A2999 RMK AO2 SLP155 T02890206

Aviation forecast (TAF) for General Edward Lawrence Logan International Airport

Retrieved 2020/08/12 18:43 UTC (5 hours ago):

TAF KBOS 121740Z 1218/1324 25005KT P6SM FEW045 FM122100 19006KT P6SM BKN050 FM130000 24005KT P6SM SCT050 FM130300 27004KT P6SM SCT250 FM130500 32004KT P6SM SCT200 FM130800 36003KT P6SM SCT250 FM131300 03004KT P6SM SCT250 FM131700 09005KT P6SM SCT250